LEIBLFKB

Guest
Details From LEIB - Ibiza
To LFKB - Bastia Poretta
Flight Number -
Tags decoded
Created
Modified
Stats Distance 445 nm / 825 km
Max Altitude 0 ft / 0 m
Waypoints 5
Social Downloads 5
Likes 0
Share VATSIM

Download

Looking for another format? Having issues loading an existing format? Contact us
Advertisement - Login to hide

Notes

Requested: LEIB PTC AJO LIBLO LFKB

Route

LEIB PTC AJO LIBLO LFKB

ID Type Via Altitude (ft/m) Position (lat/lon) Dist (leg/tot) Name
O LEIB APT - 0 / 0 38.87287 / 1.37304 - / 0 nm Ibiza
PTC NDB - 0 / 0 39.42732 / 3.25672 93 / 93 nm PORTO COLOM LOM
AJO VOR - 0 / 0 41.77053 / 8.77467 288 / 382 nm AJACCIO VOR-DME
LIBLO FIX - 0 / 0 42.25111 / 8.82833 28 / 411 nm
O LFKB APT - 0 / 0 42.55251 / 9.48371 34 / 445 nm Bastia Poretta

Altitude Profile

Advertisement - Login to hide

Weather


0- 5 10 15 20 25 30 35+ Temperature / °C

Clouds and Precipitation
Forecast for 2018-10-15 12:00 UTC. Updated an hour ago

Ground ~20,000 ft ~40,000 ft Winds

LEIB

Details ICAO LEIB (IBZ)
Name Ibiza
Region Spain
Timezone Europe/Madrid (UTC+2.0)
Stats Elevation 20 ft / 6 m (AMSL)
Location 38.872900° 1.373100°
Runways 1
Magnetic Variation 0.753° E

METAR

LEIB 151030Z 27014KT 9999 FEW030 21/10 Q1009 NOSIG

Decode

TAF

TAF LEIB 150800Z 1509/1609 27015KT 9999 FEW015 TX24/1512Z TN15/1606Z BECMG 1516/1519 32005KT

Decode

Departure Runways

ID Width Length Bearing (true/mag) Surface Threshold Overrun Markings Lighting
06 148 ft / 45 m 9,196 ft / 2,803 m 61.99° / 61.24° ASPHALT 0 ft / 0 m 177 ft / 54 m APP CENTERLINE EDGE THRESHOLD MALS
24 148 ft / 45 m 9,196 ft / 2,803 m 242.01° / 241.26° ASPHALT 0 ft / 0 m 197 ft / 60 m PREC-APP CENTERLINE EDGE THRESHOLD CALVERT

LFKB

Details ICAO LFKB (BIA)
Name Bastia Poretta
Region France
Timezone Europe/Paris (UTC+2.0)
Stats Elevation 24 ft / 7 m (AMSL)
Location 42.552600° 9.483750°
Runways 1
Magnetic Variation 2.575° E

METAR

LFKB 151030Z AUTO 11009KT 9999 FEW023 22/18 Q1016 NOSIG

Decode

TAF

TAF LFKB 150800Z 1509/1609 13010KT 9999 FEW023 TX23/1512Z TN15/1603Z BECMG 1517/1519 24004KT 9999 FEW020 BKN033 BECMG 1600/1602 -RA BKN020 OVC030

Decode

Destination Runways

ID Width Length Bearing (true/mag) Surface Threshold Overrun Markings Lighting
16 148 ft / 45 m 8,273 ft / 2,522 m 162.83° / 160.26° ASPHALT 0 ft / 0 m 102 ft / 31 m APP CENTERLINE EDGE THRESHOLD TDZ REIL-OMNI
34 148 ft / 45 m 8,273 ft / 2,522 m 342.84° / 340.26° ASPHALT 0 ft / 0 m 0 ft / 0 m PREC-APP CENTERLINE EDGE THRESHOLD TDZ REIL-OMNI

Approach Navaids

Runway Type Ident Frequency Range Bearing (true/mag) Slope Elevation
34 GS BP 111.35 MHz 27 nm / 50 km 343.62° / 341.04 ° 3.00° 25 ft / 8 m (AMSL)
34 DME BP 111.35 MHz 18 nm / 33 km - - 69 ft / 21 m (AMSL)
34 LOC-ILS BP 111.35 MHz 27 nm / 50 km 342.81° / 340.23 ° - 25 ft / 8 m (AMSL)

Popular Alternatives